createdAt,value
2022-12-03T00:00:33.912Z,-2.86
2022-12-03T00:04:20.200Z,-2.88
2022-12-03T00:07:47.043Z,-2.89
2022-12-03T00:11:13.788Z,-2.92
2022-12-03T00:14:44.627Z,-2.91
2022-12-03T00:18:12.179Z,-2.92
2022-12-03T00:21:39.063Z,-2.94
2022-12-03T00:25:07.061Z,-2.98
2022-12-03T00:28:34.161Z,-3.02
2022-12-03T00:32:01.099Z,-3.05
2022-12-03T00:35:27.762Z,-3.08
2022-12-03T00:38:54.536Z,-3.10
2022-12-03T00:42:21.946Z,-3.09
2022-12-03T00:45:48.853Z,-3.11
2022-12-03T00:49:15.742Z,-3.13
2022-12-03T00:52:42.600Z,-3.15
2022-12-03T00:56:11.024Z,-3.15
2022-12-03T00:59:37.950Z,-3.15
2022-12-03T01:03:06.738Z,-3.13
2022-12-03T01:06:33.589Z,-3.13
2022-12-03T01:10:00.440Z,-3.12
2022-12-03T01:13:27.756Z,-3.12
2022-12-03T01:16:54.753Z,-3.09
2022-12-03T01:20:21.886Z,-3.08
2022-12-03T01:23:48.752Z,-3.07
2022-12-03T01:27:15.586Z,-3.07
2022-12-03T01:30:56.249Z,-3.08
2022-12-03T01:34:22.933Z,-3.09
2022-12-03T01:37:50.095Z,-3.09
2022-12-03T01:41:17.935Z,-3.08
2022-12-03T01:44:45.980Z,-3.07
2022-12-03T01:48:16.611Z,-3.06
2022-12-03T01:51:43.911Z,-3.05
2022-12-03T01:55:17.313Z,-3.04
2022-12-03T01:58:45.650Z,-3.05
2022-12-03T02:02:21.062Z,-3.06
2022-12-03T02:05:48.427Z,-3.07
2022-12-03T02:09:16.714Z,-3.08
2022-12-03T02:12:48.620Z,-3.09
2022-12-03T02:16:15.735Z,-3.07
2022-12-03T02:19:42.722Z,-3.07
2022-12-03T02:23:15.102Z,-3.10
2022-12-03T02:26:41.896Z,-3.10
2022-12-03T02:30:11.467Z,-3.11
2022-12-03T02:33:39.710Z,-3.11
2022-12-03T02:37:08.593Z,-3.12
2022-12-03T02:40:36.278Z,-3.12
2022-12-03T02:44:03.790Z,-3.10
2022-12-03T02:47:31.951Z,-3.11
2022-12-03T02:51:02.646Z,-3.11
2022-12-03T02:54:29.943Z,-3.11
2022-12-03T02:57:57.255Z,-3.12
2022-12-03T03:01:24.453Z,-3.13
2022-12-03T03:04:52.395Z,-3.14
2022-12-03T03:08:20.553Z,-3.16
2022-12-03T03:11:47.520Z,-3.17
2022-12-03T03:15:14.848Z,-3.17
2022-12-03T03:18:42.448Z,-3.16
2022-12-03T03:22:10.791Z,-3.15
2022-12-03T03:25:38.205Z,-3.15
2022-12-03T03:29:05.118Z,-3.15
2022-12-03T03:32:33.024Z,-3.14
2022-12-03T03:36:02.126Z,-3.14
2022-12-03T03:39:29.415Z,-3.12
2022-12-03T03:42:58.171Z,-3.12
2022-12-03T03:46:25.606Z,-3.11
2022-12-03T03:49:53.049Z,-3.11
2022-12-03T03:53:20.767Z,-3.11
2022-12-03T03:56:48.209Z,-3.11
2022-12-03T04:00:17.095Z,-3.12
2022-12-03T04:03:44.236Z,-3.12
2022-12-03T04:07:11.105Z,-3.12
2022-12-03T04:10:55.606Z,-3.10
2022-12-03T04:14:22.221Z,-3.08
2022-12-03T04:18:09.677Z,-3.08
2022-12-03T04:21:54.153Z,-3.08
2022-12-03T04:25:39.000Z,-3.07
2022-12-03T04:29:06.071Z,-3.05
2022-12-03T04:32:50.518Z,-3.04
2022-12-03T04:36:17.415Z,-3.02
2022-12-03T04:39:44.744Z,-3.00
2022-12-03T04:43:13.182Z,-2.98
2022-12-03T04:46:40.351Z,-2.94
2022-12-03T04:50:09.295Z,-2.92
2022-12-03T04:53:36.463Z,-2.91
2022-12-03T04:57:04.062Z,-2.89
2022-12-03T05:00:31.077Z,-2.87
2022-12-03T05:03:58.598Z,-2.88
2022-12-03T05:07:25.390Z,-2.87
2022-12-03T05:10:52.275Z,-2.86
2022-12-03T05:14:19.576Z,-2.86
2022-12-03T05:17:46.806Z,-2.84
2022-12-03T05:21:14.224Z,-2.83
2022-12-03T05:24:41.012Z,-2.84
2022-12-03T05:28:08.268Z,-2.85
2022-12-03T05:31:35.187Z,-2.85
2022-12-03T05:35:01.902Z,-2.86
2022-12-03T05:38:28.702Z,-2.87
2022-12-03T05:42:13.373Z,-2.87
2022-12-03T05:45:41.593Z,-2.87
2022-12-03T05:49:08.356Z,-2.87
2022-12-03T05:52:35.470Z,-2.86
2022-12-03T05:56:02.485Z,-2.86
2022-12-03T05:59:29.619Z,-2.86
2022-12-03T06:02:57.268Z,-2.86
2022-12-03T06:06:24.183Z,-2.86
2022-12-03T06:09:50.966Z,-2.88
2022-12-03T06:13:18.340Z,-2.89
2022-12-03T06:16:45.244Z,-2.91
2022-12-03T06:20:15.004Z,-2.92
2022-12-03T06:23:44.879Z,-2.92
2022-12-03T06:27:11.978Z,-2.93
2022-12-03T06:30:38.729Z,-2.92
2022-12-03T06:34:05.518Z,-2.92
2022-12-03T06:37:32.540Z,-2.92
2022-12-03T06:40:59.246Z,-2.91
2022-12-03T06:44:26.292Z,-2.89
2022-12-03T06:47:53.099Z,-2.89
2022-12-03T06:51:19.927Z,-2.86
2022-12-03T06:54:46.977Z,-2.85
2022-12-03T06:58:14.717Z,-2.82
2022-12-03T07:01:41.523Z,-2.81
2022-12-03T07:05:09.778Z,-2.79
2022-12-03T07:08:36.782Z,-2.78
2022-12-03T07:12:03.476Z,-2.75
2022-12-03T07:15:30.595Z,-2.73
2022-12-03T07:18:57.231Z,-2.71
2022-12-03T07:22:24.141Z,-2.68
2022-12-03T07:25:50.939Z,-2.65
2022-12-03T07:29:17.893Z,-2.60
2022-12-03T07:32:44.990Z,-2.54
2022-12-03T07:36:12.677Z,-2.48
2022-12-03T07:39:39.563Z,-2.44
2022-12-03T07:43:06.683Z,-2.40
2022-12-03T07:46:33.441Z,-2.36
2022-12-03T07:50:00.316Z,-2.31
2022-12-03T07:53:27.164Z,-2.23
2022-12-03T07:56:59.580Z,-2.19
2022-12-03T08:00:28.577Z,-2.14
2022-12-03T08:03:55.568Z,-2.08
2022-12-03T08:07:22.732Z,-2.03
2022-12-03T08:10:49.660Z,-2.00
2022-12-03T08:14:19.520Z,-1.97
2022-12-03T08:17:52.398Z,-1.93
2022-12-03T08:21:22.700Z,-1.92
2022-12-03T08:24:49.553Z,-1.91
2022-12-03T08:28:19.961Z,-1.91
2022-12-03T08:31:52.153Z,-1.90
2022-12-03T08:35:24.873Z,-1.89
2022-12-03T08:38:53.675Z,-1.89
2022-12-03T08:42:41.768Z,-1.86
2022-12-03T08:46:15.745Z,-1.81
2022-12-03T08:49:43.358Z,-1.79
2022-12-03T08:53:26.630Z,-1.76
2022-12-03T08:56:53.636Z,-1.70
2022-12-03T09:00:23.972Z,-1.67
2022-12-03T09:03:54.482Z,-1.67
2022-12-03T09:07:21.791Z,-1.68
2022-12-03T09:10:48.735Z,-1.70
2022-12-03T09:14:18.995Z,-1.72
2022-12-03T09:17:45.848Z,-1.73
2022-12-03T09:21:12.823Z,-1.74
2022-12-03T09:24:39.606Z,-1.76
2022-12-03T09:28:06.542Z,-1.77
2022-12-03T09:31:34.520Z,-1.78
2022-12-03T09:35:01.167Z,-1.79
2022-12-03T09:38:27.980Z,-1.80
2022-12-03T09:41:55.958Z,-1.81
2022-12-03T09:45:22.815Z,-1.78
2022-12-03T09:48:49.692Z,-1.77
2022-12-03T09:52:22.344Z,-1.77
2022-12-03T09:55:50.464Z,-1.77
2022-12-03T09:59:18.395Z,-1.76
2022-12-03T10:02:46.416Z,-1.73
2022-12-03T10:06:17.956Z,-1.71
2022-12-03T10:09:44.664Z,-1.67
2022-12-03T10:13:23.892Z,-1.63
2022-12-03T10:16:52.923Z,-1.56
2022-12-03T10:20:22.362Z,-1.46
2022-12-03T10:23:54.917Z,-1.38
2022-12-03T10:27:31.169Z,-1.35
2022-12-03T10:30:59.366Z,-1.33
2022-12-03T10:34:31.905Z,-1.33
2022-12-03T10:38:04.306Z,-1.34
2022-12-03T10:41:31.624Z,-1.34
2022-12-03T10:45:16.499Z,-1.33
2022-12-03T10:48:44.708Z,-1.32
2022-12-03T10:52:26.149Z,-1.32
2022-12-03T10:55:58.817Z,-1.31
2022-12-03T10:59:28.538Z,-1.31
2022-12-03T11:02:56.974Z,-1.31
2022-12-03T11:06:25.428Z,-1.33
2022-12-03T11:09:55.794Z,-1.36
2022-12-03T11:15:15.205Z,-1.35
2022-12-03T11:19:03.342Z,-1.36
2022-12-03T11:22:41.968Z,-1.33
2022-12-03T11:26:08.737Z,-1.30
2022-12-03T11:30:04.646Z,-1.27
2022-12-03T11:33:33.303Z,-1.23
2022-12-03T11:37:29.335Z,-1.21
2022-12-03T11:45:16.649Z,-1.18
2022-12-03T11:48:44.909Z,-1.19
2022-12-03T11:52:30.620Z,-1.17
2022-12-03T11:56:08.423Z,-1.19
2022-12-03T11:59:32.203Z,-1.22
2022-12-03T12:02:57.334Z,-1.24
2022-12-03T12:06:21.696Z,-1.27
2022-12-03T12:09:53.600Z,-1.29
2022-12-03T12:13:54.810Z,-1.31
2022-12-03T12:17:32.940Z,-1.29
2022-12-03T12:21:16.209Z,-1.29
2022-12-03T12:24:51.167Z,-1.28
2022-12-03T12:28:14.694Z,-1.26
2022-12-03T12:31:38.070Z,-1.26
2022-12-03T12:35:13.328Z,-1.27
2022-12-03T12:38:36.739Z,-1.28
2022-12-03T12:42:01.153Z,-1.29
2022-12-03T12:45:27.381Z,-1.30
2022-12-03T12:48:50.683Z,-1.29
2022-12-03T12:52:14.656Z,-1.29
2022-12-03T12:55:38.730Z,-1.27
2022-12-03T12:59:12.234Z,-1.27
2022-12-03T13:02:41.792Z,-1.28
2022-12-03T13:06:11.005Z,-1.28
2022-12-03T13:09:34.495Z,-1.26
2022-12-03T13:12:57.936Z,-1.23
2022-12-03T13:16:27.552Z,-1.21
2022-12-03T13:19:58.334Z,-1.17
2022-12-03T13:23:33.971Z,-1.14
2022-12-03T13:26:58.639Z,-1.13
2022-12-03T13:30:23.237Z,-1.13
2022-12-03T13:33:46.820Z,-1.13
2022-12-03T13:37:16.464Z,-1.14
2022-12-03T13:40:40.957Z,-1.16
2022-12-03T13:44:15.352Z,-1.16
2022-12-03T13:47:39.750Z,-1.16
2022-12-03T13:51:19.464Z,-1.16
2022-12-03T13:54:43.333Z,-1.17
2022-12-03T13:58:06.621Z,-1.19
2022-12-03T14:01:29.901Z,-1.20
2022-12-03T14:04:58.447Z,-1.21
2022-12-03T14:08:23.425Z,-1.22
2022-12-03T14:12:05.075Z,-1.23
2022-12-03T14:15:28.578Z,-1.24
2022-12-03T14:18:51.830Z,-1.23
2022-12-03T14:22:15.062Z,-1.23
2022-12-03T14:25:38.214Z,-1.24
2022-12-03T14:29:05.852Z,-1.24
2022-12-03T14:32:31.965Z,-1.25
2022-12-03T14:35:55.659Z,-1.25
2022-12-03T14:39:19.105Z,-1.27
2022-12-03T14:42:42.401Z,-1.27
2022-12-03T14:46:06.053Z,-1.27
2022-12-03T14:49:29.604Z,-1.28
2022-12-03T14:52:52.916Z,-1.29
2022-12-03T14:56:16.134Z,-1.28
2022-12-03T14:59:40.430Z,-1.28
2022-12-03T15:03:03.871Z,-1.27
2022-12-03T15:06:27.570Z,-1.26
2022-12-03T15:09:50.768Z,-1.25
2022-12-03T15:13:14.121Z,-1.25
2022-12-03T15:16:37.522Z,-1.25
2022-12-03T15:20:00.823Z,-1.26
2022-12-03T15:23:24.221Z,-1.25
2022-12-03T15:26:48.631Z,-1.24
2022-12-03T15:30:12.405Z,-1.25
2022-12-03T15:33:36.734Z,-1.24
2022-12-03T15:37:00.148Z,-1.24
2022-12-03T15:40:23.408Z,-1.23
2022-12-03T15:43:46.950Z,-1.22
2022-12-03T15:47:10.341Z,-1.20
2022-12-03T15:50:38.586Z,-1.20
2022-12-03T15:54:03.725Z,-1.19
2022-12-03T15:57:27.407Z,-1.19
2022-12-03T16:00:50.994Z,-1.18
2022-12-03T16:04:14.413Z,-1.17
2022-12-03T16:07:38.317Z,-1.15
2022-12-03T16:11:02.110Z,-1.13
2022-12-03T16:14:25.354Z,-1.12
2022-12-03T16:17:48.707Z,-1.11
2022-12-03T16:21:12.256Z,-1.11
2022-12-03T16:24:35.903Z,-1.10
2022-12-03T16:27:59.355Z,-1.09
2022-12-03T16:31:23.818Z,-1.08
2022-12-03T16:34:47.158Z,-1.08
2022-12-03T16:38:11.019Z,-1.08
2022-12-03T16:41:34.242Z,-1.08
2022-12-03T16:45:15.905Z,-1.07
2022-12-03T16:48:39.441Z,-1.07
2022-12-03T16:52:03.420Z,-1.06
2022-12-03T16:55:27.194Z,-1.05
2022-12-03T16:58:51.221Z,-1.05
2022-12-03T17:02:14.735Z,-1.04
2022-12-03T17:05:39.909Z,-1.03
2022-12-03T17:09:03.309Z,-1.02
2022-12-03T17:12:37.492Z,-1.03
2022-12-03T17:16:10.346Z,-1.02
2022-12-03T17:19:33.728Z,-1.02
2022-12-03T17:22:57.629Z,-1.00
2022-12-03T17:26:21.002Z,-0.99
2022-12-03T17:29:44.328Z,-0.98
2022-12-03T17:33:07.713Z,-0.97
2022-12-03T17:36:31.086Z,-0.96
2022-12-03T17:39:54.685Z,-0.94
2022-12-03T17:43:18.448Z,-0.91
2022-12-03T17:46:41.822Z,-0.91
2022-12-03T17:50:08.497Z,-0.89
2022-12-03T17:53:31.798Z,-0.88
2022-12-03T17:56:55.266Z,-0.88
2022-12-03T18:00:19.835Z,-0.88
2022-12-03T18:03:43.158Z,-0.90
2022-12-03T18:07:06.597Z,-0.89
2022-12-03T18:10:29.894Z,-0.90
2022-12-03T18:13:53.256Z,-0.90
2022-12-03T18:17:16.623Z,-0.90
2022-12-03T18:20:39.949Z,-0.89
2022-12-03T18:24:04.491Z,-0.89
2022-12-03T18:27:28.370Z,-0.89
2022-12-03T18:30:52.910Z,-0.88
2022-12-03T18:34:16.513Z,-0.87
2022-12-03T18:37:40.062Z,-0.87
2022-12-03T18:41:03.897Z,-0.85
2022-12-03T18:44:28.865Z,-0.85
2022-12-03T18:47:52.554Z,-0.85
2022-12-03T18:51:18.176Z,-0.84
2022-12-03T18:54:41.792Z,-0.81
2022-12-03T18:58:05.494Z,-0.80
2022-12-03T19:01:29.060Z,-0.77
2022-12-03T19:04:52.402Z,-0.75
2022-12-03T19:08:15.696Z,-0.74
2022-12-03T19:11:39.287Z,-0.73
2022-12-03T19:15:03.264Z,-0.72
2022-12-03T19:18:27.530Z,-0.71
2022-12-03T19:21:50.879Z,-0.69
2022-12-03T19:25:14.207Z,-0.68
2022-12-03T19:28:37.654Z,-0.66
2022-12-03T19:32:01.195Z,-0.66
2022-12-03T19:35:24.584Z,-0.66
2022-12-03T19:38:55.034Z,-0.66
2022-12-03T19:42:20.180Z,-0.65
2022-12-03T19:45:43.509Z,-0.64
2022-12-03T19:49:07.479Z,-0.64
2022-12-03T19:52:30.939Z,-0.63
2022-12-03T19:55:55.881Z,-0.64
2022-12-03T19:59:19.235Z,-0.64
2022-12-03T20:02:42.722Z,-0.64
2022-12-03T20:06:09.278Z,-0.65
2022-12-03T20:09:32.944Z,-0.65
2022-12-03T20:12:56.289Z,-0.64
2022-12-03T20:16:20.256Z,-0.63
2022-12-03T20:19:44.378Z,-0.61
2022-12-03T20:23:07.617Z,-0.61
2022-12-03T20:26:31.603Z,-0.59
2022-12-03T20:29:55.244Z,-0.56
2022-12-03T20:33:18.844Z,-0.55
2022-12-03T20:36:43.595Z,-0.53
2022-12-03T20:40:09.547Z,-0.52
2022-12-03T20:43:33.323Z,-0.50
2022-12-03T20:46:56.612Z,-0.48
2022-12-03T20:50:20.125Z,-0.45
2022-12-03T20:53:44.630Z,-0.44
2022-12-03T20:57:07.923Z,-0.41
2022-12-03T21:00:31.739Z,-0.39
2022-12-03T21:03:56.405Z,-0.36
2022-12-03T21:07:19.793Z,-0.35
2022-12-03T21:10:46.846Z,-0.34
2022-12-03T21:14:10.862Z,-0.34
2022-12-03T21:17:34.281Z,-0.34
2022-12-03T21:21:00.140Z,-0.34
2022-12-03T21:24:23.388Z,-0.34
2022-12-03T21:27:46.692Z,-0.35
2022-12-03T21:31:12.201Z,-0.33
2022-12-03T21:34:36.640Z,-0.33
2022-12-03T21:38:00.326Z,-0.32
2022-12-03T21:41:23.858Z,-0.29
2022-12-03T21:44:47.087Z,-0.28
2022-12-03T21:48:11.215Z,-0.28
2022-12-03T21:51:35.171Z,-0.26
2022-12-03T21:54:58.584Z,-0.25
2022-12-03T21:58:21.857Z,-0.22
2022-12-03T22:01:47.352Z,-0.21
2022-12-03T22:05:11.564Z,-0.19
2022-12-03T22:08:35.218Z,-0.18
2022-12-03T22:12:00.239Z,-0.16
2022-12-03T22:15:23.640Z,-0.15
2022-12-03T22:18:47.009Z,-0.13
2022-12-03T22:22:10.288Z,-0.11
2022-12-03T22:25:33.849Z,-0.10
2022-12-03T22:28:57.174Z,-0.10
2022-12-03T22:32:20.757Z,-0.08
2022-12-03T22:35:53.297Z,-0.08
2022-12-03T22:39:16.689Z,-0.07
2022-12-03T22:42:40.103Z,-0.06
2022-12-03T22:46:04.224Z,-0.06
2022-12-03T22:49:28.715Z,-0.06
2022-12-03T22:52:52.120Z,-0.06
2022-12-03T22:56:16.584Z,-0.05
2022-12-03T22:59:39.860Z,-0.05
2022-12-03T23:03:04.206Z,-0.05
2022-12-03T23:06:29.536Z,-0.04
2022-12-03T23:09:53.060Z,-0.03
2022-12-03T23:13:18.850Z,-0.03
2022-12-03T23:16:42.308Z,-0.02
2022-12-03T23:20:08.721Z,-0.01
2022-12-03T23:23:33.315Z,-0.02
2022-12-03T23:26:57.850Z,-0.02
2022-12-03T23:30:21.506Z,-0.03
2022-12-03T23:33:45.716Z,-0.03
2022-12-03T23:37:09.359Z,-0.03
2022-12-03T23:40:33.732Z,-0.03
2022-12-03T23:43:57.833Z,-0.04
2022-12-03T23:47:21.498Z,-0.04
2022-12-03T23:50:45.013Z,-0.05
2022-12-03T23:54:08.672Z,-0.05
2022-12-03T23:57:32.273Z,-0.04
